Time;durP1;ratioP1;P1;durP2;ratioP2;P2;SDS_P1;SDS_P2;PMS_P1;PMS_P2;Temp;Humidity;BMP_temperature;BMP_pressure;BME280_temperature;BME280_humidity;BME280_pressure;Samples;Min_cycle;Max_cycle;Signal;HPM_P1;HPM_P2
2021/01/11 00:01:26;;;;;;;14.80;8.68;;;-1.00;61.50;;;;;;5035010;28;20148;-77
2021/01/11 00:03:52;;;;;;;16.13;8.70;;;-1.00;61.40;;;;;;5035208;28;20377;-79
2021/01/11 00:06:17;;;;;;;15.23;7.95;;;-1.00;61.20;;;;;;5035091;28;20029;-78
2021/01/11 00:08:45;;;;;;;17.17;8.73;;;-1.10;61.00;;;;;;5035220;28;20032;-83
2021/01/11 00:11:20;;;;;;;19.50;10.20;;;-1.10;61.00;;;;;;5035022;28;20119;-80
2021/01/11 00:13:46;;;;;;;22.00;10.23;;;-1.10;61.00;;;;;;5035122;28;20051;-82
2021/01/11 00:16:11;;;;;;;22.83;11.45;;;-1.20;61.00;;;;;;5035251;28;20489;-81
2021/01/11 00:18:41;;;;;;;27.08;12.85;;;-1.20;61.00;;;;;;5035074;28;20370;-81
2021/01/11 00:21:07;;;;;;;24.90;11.57;;;-1.20;61.00;;;;;;5034974;28;20143;-83
2021/01/11 00:23:33;;;;;;;20.63;9.82;;;-1.30;61.20;;;;;;5034713;28;20017;-76
2021/01/11 00:25:59;;;;;;;19.73;9.70;;;-1.30;61.40;;;;;;5034983;28;20083;-77
2021/01/11 00:28:25;;;;;;;22.33;10.85;;;-1.30;61.60;;;;;;5034775;28;20468;-77
2021/01/11 00:30:51;;;;;;;16.42;9.15;;;-1.30;61.70;;;;;;5052669;28;20111;-78
2021/01/11 00:33:16;;;;;;;19.38;9.52;;;-1.30;61.80;;;;;;5035006;28;20117;-80
2021/01/11 00:35:42;;;;;;;17.42;8.80;;;-1.40;61.90;;;;;;5034783;28;20025;-77
2021/01/11 00:38:08;;;;;;;15.32;8.60;;;-1.50;62.10;;;;;;5018446;28;20060;-77
2021/01/11 00:40:33;;;;;;;13.35;7.88;;;-1.60;62.00;;;;;;5034445;28;20146;-77
2021/01/11 00:42:59;;;;;;;16.20;7.97;;;-1.70;62.10;;;;;;5034848;28;20017;-78
2021/01/11 00:45:26;;;;;;;17.10;8.93;;;-1.80;62.20;;;;;;5034468;28;20078;-81
2021/01/11 00:47:51;;;;;;;13.98;8.07;;;-1.90;62.40;;;;;;5018331;28;20545;-82
2021/01/11 00:50:17;;;;;;;13.27;7.82;;;-2.00;62.50;;;;;;5034795;28;20124;-80
2021/01/11 00:52:42;;;;;;;14.70;8.73;;;-2.00;62.90;;;;;;5034360;28;20477;-82
2021/01/11 00:55:09;;;;;;;17.60;9.13;;;-2.10;63.10;;;;;;5034855;28;20025;-77
2021/01/11 00:57:35;;;;;;;15.95;8.25;;;-2.10;63.40;;;;;;5034544;28;20040;-77
2021/01/11 01:00:01;;;;;;;16.73;8.98;;;-2.20;63.50;;;;;;5052299;28;20048;-77
2021/01/11 01:02:27;;;;;;;13.35;7.60;;;-2.20;63.70;;;;;;5034026;28;20080;-78
2021/01/11 01:04:53;;;;;;;16.77;9.10;;;-2.30;63.70;;;;;;5034464;28;20075;-77
2021/01/11 01:07:18;;;;;;;18.17;9.13;;;-2.30;63.70;;;;;;5033912;28;20482;-77
2021/01/11 01:09:44;;;;;;;16.08;8.30;;;-2.40;63.80;;;;;;5037830;28;20074;-78
2021/01/11 01:12:09;;;;;;;19.10;8.93;;;-2.50;63.90;;;;;;5037854;28;20132;-77
2021/01/11 01:14:35;;;;;;;14.85;8.88;;;-2.50;63.80;;;;;;5037752;28;20029;-77
2021/01/11 01:17:00;;;;;;;19.63;9.57;;;-2.70;63.70;;;;;;5037728;28;20420;-77
2021/01/11 01:19:26;;;;;;;18.55;10.10;;;-2.80;63.60;;;;;;5037756;28;20107;-77
2021/01/11 01:21:52;;;;;;;21.05;10.10;;;-2.80;63.70;;;;;;5037612;28;20028;-78
2021/01/11 01:24:17;;;;;;;18.65;10.00;;;-3.00;63.60;;;;;;5055450;28;20021;-77
2021/01/11 01:26:43;;;;;;;19.40;8.95;;;-3.00;63.70;;;;;;5037649;28;20464;-77
2021/01/11 01:29:08;;;;;;;17.23;8.60;;;-3.10;63.80;;;;;;5037674;28;20017;-77
2021/01/11 01:31:34;;;;;;;20.15;9.00;;;-3.20;63.90;;;;;;5055430;28;20080;-77
2021/01/11 01:33:59;;;;;;;18.75;9.52;;;-3.20;64.00;;;;;;5037382;28;20021;-79
2021/01/11 01:36:25;;;;;;;15.98;8.95;;;-3.20;63.80;;;;;;5037546;28;20017;-77
2021/01/11 01:38:51;;;;;;;18.80;9.60;;;-3.20;63.50;;;;;;5037425;28;20116;-77
2021/01/11 01:41:16;;;;;;;18.25;9.65;;;-3.20;63.50;;;;;;5037519;28;20118;-77
2021/01/11 01:43:42;;;;;;;21.05;9.90;;;-3.30;63.80;;;;;;5037309;28;20111;-78
2021/01/11 01:46:14;;;;;;;21.13;10.25;;;-3.30;63.90;;;;;;5037228;28;20048;-78
2021/01/11 01:48:40;;;;;;;20.95;10.68;;;-3.30;63.80;;;;;;5037116;28;20032;-77
2021/01/11 01:51:05;;;;;;;20.58;9.35;;;-3.30;63.70;;;;;;5037035;28;20123;-78
2021/01/11 01:53:31;;;;;;;20.90;9.68;;;-3.40;63.40;;;;;;5037338;28;20025;-76
2021/01/11 01:55:57;;;;;;;19.55;10.25;;;-3.50;63.20;;;;;;5037276;28;20028;-78
2021/01/11 01:58:22;;;;;;;22.05;10.52;;;-3.60;63.00;;;;;;5055000;28;20029;-77
2021/01/11 02:00:49;;;;;;;22.85;9.23;;;-3.60;62.90;;;;;;5054536;28;20080;-77
2021/01/11 02:03:15;;;;;;;19.38;9.93;;;-3.70;62.90;;;;;;5055310;28;20074;-77
2021/01/11 02:05:41;;;;;;;18.95;10.20;;;-3.60;62.80;;;;;;5037045;28;20046;-78
2021/01/11 02:08:47;;;;;;;19.88;9.27;;;-3.70;62.60;;;;;;5036947;28;20044;-79
2021/01/11 02:11:28;;;;;;;17.95;9.27;;;-3.80;62.70;;;;;;5052841;28;20066;-77
2021/01/11 02:14:25;;;;;;;21.67;10.13;;;-3.80;63.00;;;;;;5037013;28;20033;-77
2021/01/11 02:17:14;;;;;;;18.38;9.75;;;-3.80;64.20;;;;;;5055855;28;20021;-76
2021/01/11 02:19:58;;;;;;;23.30;10.55;;;-3.80;63.70;;;;;;5036660;28;20037;-76
2021/01/11 02:22:38;;;;;;;20.70;10.45;;;-3.80;63.80;;;;;;5036799;28;20025;-77
2021/01/11 02:25:40;;;;;;;23.55;11.70;;;-3.80;63.80;;;;;;5036546;28;20025;-77
2021/01/11 02:28:50;;;;;;;26.15;11.30;;;-3.80;64.10;;;;;;5036793;28;20017;-76
2021/01/11 02:31:17;;;;;;;20.60;10.13;;;-3.80;64.40;;;;;;5036892;28;20037;-78
2021/01/11 02:33:45;;;;;;;24.88;10.98;;;-3.80;64.90;;;;;;5020612;28;20029;-77
2021/01/11 02:36:12;;;;;;;22.70;10.50;;;-3.80;65.10;;;;;;5036435;28;20033;-77
2021/01/11 02:38:38;;;;;;;21.08;9.90;;;-3.70;65.30;;;;;;5036373;28;20032;-77
2021/01/11 02:41:04;;;;;;;17.00;9.20;;;-3.60;65.20;;;;;;5036321;28;20028;-76
2021/01/11 02:43:31;;;;;;;17.45;8.85;;;-3.60;65.10;;;;;;5036877;28;20032;-76
2021/01/11 02:45:57;;;;;;;18.15;9.32;;;-3.50;65.10;;;;;;5036422;28;20032;-78
2021/01/11 02:48:51;;;;;;;17.35;8.77;;;-3.50;64.90;;;;;;5036270;28;20021;-76
2021/01/11 02:51:22;;;;;;;20.30;8.70;;;-3.50;64.80;;;;;;5036672;28;20047;-78
2021/01/11 02:54:10;;;;;;;17.85;8.73;;;-3.50;64.70;;;;;;5037546;28;20032;-80
2021/01/11 02:56:55;;;;;;;15.60;8.77;;;-3.50;64.50;;;;;;5036178;28;20025;-77
2021/01/11 02:59:45;;;;;;;15.82;8.48;;;-3.50;64.40;;;;;;5035960;28;20021;-77
2021/01/11 03:02:13;;;;;;;19.77;10.02;;;-3.50;64.50;;;;;;5036161;28;20041;-78
2021/01/11 03:04:39;;;;;;;21.02;10.45;;;-3.50;64.70;;;;;;5036183;28;20033;-80
2021/01/11 03:07:06;;;;;;;19.20;10.35;;;-3.70;64.60;;;;;;5036021;28;20036;-79
2021/01/11 03:09:36;;;;;;;18.55;9.18;;;-3.80;64.80;;;;;;5053509;28;20036;-78
2021/01/11 03:12:03;;;;;;;26.77;11.20;;;-3.80;64.90;;;;;;5035856;28;20115;-77
2021/01/11 03:14:29;;;;;;;26.33;11.07;;;-3.90;64.90;;;;;;5035825;28;20025;-77
2021/01/11 03:16:55;;;;;;;22.80;9.90;;;-4.10;65.30;;;;;;5035611;28;20438;-77
2021/01/11 03:19:21;;;;;;;22.17;11.90;;;-4.20;65.60;;;;;;5035438;28;20021;-77
2021/01/11 03:21:47;;;;;;;24.73;10.82;;;-4.20;65.70;;;;;;5035762;28;20025;-77
2021/01/11 03:24:18;;;;;;;23.13;11.63;;;-4.20;65.70;;;;;;5035520;28;20028;-77
2021/01/11 03:26:44;;;;;;;21.85;9.85;;;-4.20;65.80;;;;;;5035525;28;20033;-77
2021/01/11 03:29:11;;;;;;;18.58;9.95;;;-4.20;65.60;;;;;;5035353;28;20025;-78
2021/01/11 03:31:38;;;;;;;29.27;11.48;;;-4.40;65.40;;;;;;5034779;28;20032;-80
2021/01/11 03:34:04;;;;;;;24.38;11.13;;;-4.60;65.50;;;;;;5035413;28;20385;-78
2021/01/11 03:36:29;;;;;;;29.65;13.20;;;-4.70;66.00;;;;;;5035282;28;20039;-78
2021/01/11 03:38:56;;;;;;;20.27;10.52;;;-4.70;66.30;;;;;;5035046;28;20382;-78
2021/01/11 03:41:21;;;;;;;26.80;11.30;;;-4.70;66.60;;;;;;5018820;28;20029;-78
2021/01/11 03:43:47;;;;;;;23.40;12.18;;;-4.70;66.80;;;;;;5035132;28;20059;-78
2021/01/11 03:46:15;;;;;;;21.65;11.60;;;-4.70;67.00;;;;;;5035024;28;20028;-79
2021/01/11 03:48:41;;;;;;;19.30;10.95;;;-4.60;67.00;;;;;;5034912;28;20371;-78
2021/01/11 03:51:06;;;;;;;31.05;13.55;;;-4.50;67.10;;;;;;5034763;28;20079;-77
2021/01/11 03:53:32;;;;;;;25.00;11.57;;;-4.40;66.90;;;;;;5034883;28;20385;-79
2021/01/11 03:55:59;;;;;;;26.65;11.50;;;-4.40;66.70;;;;;;5034849;28;20083;-78
2021/01/11 03:58:27;;;;;;;30.63;12.57;;;-4.40;66.50;;;;;;5052783;28;20104;-77
2021/01/11 04:00:53;;;;;;;27.67;12.35;;;-4.50;66.40;;;;;;5034923;28;20041;-77
2021/01/11 04:03:18;;;;;;;27.27;12.95;;;-4.60;66.30;;;;;;5035069;28;20021;-79
2021/01/11 04:05:48;;;;;;;26.02;12.68;;;-4.60;66.30;;;;;;5034888;28;20025;-78
2021/01/11 04:08:14;;;;;;;23.50;11.70;;;-4.60;66.40;;;;;;5052865;28;20032;-77
2021/01/11 04:10:40;;;;;;;25.30;11.63;;;-4.70;66.50;;;;;;5035013;28;20041;-77
2021/01/11 04:13:06;;;;;;;25.33;12.02;;;-4.70;66.50;;;;;;5034810;28;20104;-79
2021/01/11 04:15:32;;;;;;;30.08;12.23;;;-4.70;66.50;;;;;;5034480;28;20112;-78
2021/01/11 04:17:59;;;;;;;23.73;11.00;;;-4.70;66.50;;;;;;5034757;28;20124;-77
2021/01/11 04:20:25;;;;;;;24.98;12.23;;;-4.70;66.30;;;;;;5034828;28;20025;-77
2021/01/11 04:22:51;;;;;;;26.23;12.93;;;-4.70;66.20;;;;;;5034782;28;20167;-77
2021/01/11 04:25:17;;;;;;;29.48;12.98;;;-4.70;66.10;;;;;;5034808;28;20105;-79
2021/01/11 04:27:43;;;;;;;24.75;11.35;;;-4.60;66.00;;;;;;5034703;28;20029;-77
2021/01/11 04:30:10;;;;;;;24.90;11.90;;;-4.60;66.00;;;;;;5052313;28;20029;-77
2021/01/11 04:32:36;;;;;;;20.77;10.07;;;-4.70;66.10;;;;;;5052380;28;20025;-77
2021/01/11 04:35:09;;;;;;;22.67;10.65;;;-4.70;66.30;;;;;;5052483;28;20025;-77
2021/01/11 04:37:37;;;;;;;21.40;10.60;;;-4.70;66.30;;;;;;5034503;28;20446;-77
2021/01/11 04:40:07;;;;;;;22.50;11.73;;;-4.80;66.30;;;;;;5034712;28;20021;-77
2021/01/11 04:43:01;;;;;;;21.10;10.30;;;-4.80;66.40;;;;;;5052623;28;20099;-76
2021/01/11 04:45:27;;;;;;;24.52;11.02;;;-4.70;66.80;;;;;;5037740;28;20087;-77
2021/01/11 04:47:54;;;;;;;29.02;11.35;;;-4.70;66.90;;;;;;5038097;28;20024;-77
2021/01/11 04:50:23;;;;;;;27.27;11.02;;;-4.60;67.00;;;;;;5038457;28;20071;-75
2021/01/11 04:52:51;;;;;;;22.95;11.13;;;-4.70;66.90;;;;;;5038130;28;20025;-75
2021/01/11 04:55:18;;;;;;;31.67;13.40;;;-4.60;66.90;;;;;;5038321;28;20043;-76
2021/01/11 04:57:55;;;;;;;25.35;11.35;;;-4.70;66.80;;;;;;5038227;28;20492;-76
2021/01/11 05:00:26;;;;;;;24.73;11.32;;;-4.80;66.40;;;;;;5038058;28;20032;-75
2021/01/11 05:03:00;;;;;;;25.65;11.77;;;-4.70;66.60;;;;;;5037984;28;20025;-74
2021/01/11 05:05:31;;;;;;;28.08;11.80;;;-4.70;66.60;;;;;;5037911;28;20029;-75
2021/01/11 05:07:57;;;;;;;22.63;11.63;;;-4.60;66.60;;;;;;5037836;28;20064;-76
2021/01/11 05:10:29;;;;;;;23.65;11.13;;;-4.60;66.60;;;;;;5055542;28;20069;-76
2021/01/11 05:12:59;;;;;;;24.80;11.65;;;-4.60;66.60;;;;;;5055824;28;20057;-75
2021/01/11 05:15:27;;;;;;;25.42;12.40;;;-4.50;66.90;;;;;;5055778;28;20025;-75
2021/01/11 05:17:54;;;;;;;25.60;12.00;;;-4.50;66.70;;;;;;5037831;28;20020;-76
2021/01/11 05:20:23;;;;;;;26.08;13.10;;;-4.50;66.60;;;;;;5037754;28;20112;-76
2021/01/11 05:22:49;;;;;;;25.80;12.23;;;-4.50;66.60;;;;;;5055743;28;20029;-75
2021/01/11 05:25:17;;;;;;;23.83;11.73;;;-4.50;66.40;;;;;;5055590;28;20017;-76
2021/01/11 05:27:44;;;;;;;24.73;12.13;;;-4.50;66.30;;;;;;5037542;28;20036;-75
2021/01/11 05:30:30;;;;;;;24.85;12.05;;;-4.40;66.30;;;;;;5037527;28;20029;-78
2021/01/11 05:32:55;;;;;;;;;;;-4.30;66.20;;;;;;5037931;28;20021;-78
2021/01/11 05:35:27;;;;;;;23.95;11.25;;;-4.30;66.10;;;;;;5037555;28;19905;-77
2021/01/11 05:37:55;;;;;;;23.83;10.88;;;-4.30;66.00;;;;;;5052683;28;20025;-78
2021/01/11 05:40:23;;;;;;;25.75;10.63;;;-4.30;65.90;;;;;;5037560;28;20028;-78
2021/01/11 05:42:51;;;;;;;23.23;10.75;;;-4.30;65.90;;;;;;5037325;28;20029;-77
2021/01/11 05:45:28;;;;;;;21.85;10.60;;;-4.30;66.00;;;;;;5037158;28;20035;-77
2021/01/11 05:47:59;;;;;;;21.20;11.15;;;-4.30;66.00;;;;;;5037355;28;20099;-76
2021/01/11 05:50:31;;;;;;;24.67;11.50;;;-4.30;65.80;;;;;;5037037;28;20119;-78
2021/01/11 05:52:57;;;;;;;23.60;11.52;;;-4.30;65.70;;;;;;5037383;28;20028;-77
2021/01/11 05:55:25;;;;;;;20.67;10.98;;;-4.40;65.60;;;;;;5036581;28;20021;-77
2021/01/11 05:57:58;;;;;;;22.27;10.93;;;-4.40;65.40;;;;;;5037132;28;20025;-77
2021/01/11 06:00:29;;;;;;;19.25;10.10;;;-4.50;65.30;;;;;;5036958;28;20079;-78
2021/01/11 06:02:56;;;;;;;21.48;10.85;;;-4.50;65.50;;;;;;5036871;28;20032;-76
2021/01/11 06:05:23;;;;;;;18.52;9.85;;;-4.60;65.40;;;;;;5036906;28;20025;-77
2021/01/11 06:07:49;;;;;;;24.58;11.75;;;-4.70;65.50;;;;;;5054821;28;20025;-77
2021/01/11 06:10:16;;;;;;;24.63;10.70;;;-4.70;65.90;;;;;;5036782;28;20047;-76
2021/01/11 06:12:43;;;;;;;20.70;10.65;;;-4.70;66.20;;;;;;5036661;28;20025;-76
2021/01/11 06:15:17;;;;;;;26.63;12.10;;;-4.60;66.50;;;;;;5037017;28;20032;-77
2021/01/11 06:17:48;;;;;;;28.15;12.88;;;-4.50;66.70;;;;;;5036840;28;20096;-78
2021/01/11 06:20:37;;;;;;;26.73;12.00;;;-4.50;66.50;;;;;;5036908;28;20135;-76
2021/01/11 06:23:03;;;;;;;28.08;12.57;;;-4.50;66.10;;;;;;5035665;28;20033;-78
2021/01/11 06:25:29;;;;;;;27.23;12.40;;;-4.60;65.70;;;;;;5037126;28;20456;-77
2021/01/11 06:28:11;;;;;;;27.48;12.77;;;-4.70;65.60;;;;;;5039197;28;20052;-77
2021/01/11 06:30:39;;;;;;;30.73;14.15;;;-4.70;65.50;;;;;;5037347;28;20033;-76
2021/01/11 06:33:16;;;;;;;33.88;15.70;;;-4.80;65.30;;;;;;5036300;28;20603;-76
2021/01/11 06:35:44;;;;;;;27.85;13.82;;;-4.80;65.30;;;;;;5033689;28;20021;-75
2021/01/11 06:38:28;;;;;;;29.25;14.43;;;-4.90;65.20;;;;;;5036635;28;20068;-76
2021/01/11 06:41:03;;;;;;;30.45;15.25;;;-4.90;65.30;;;;;;5036415;28;20031;-76
2021/01/11 06:43:45;;;;;;;58.10;20.77;;;-4.90;65.60;;;;;;5036405;28;20378;-76
2021/01/11 06:46:29;;;;;;;46.28;19.10;;;-5.00;65.20;;;;;;5036210;28;20029;-76
2021/01/11 06:49:02;;;;;;;38.00;16.00;;;-5.00;65.00;;;;;;5036358;28;20021;-76
2021/01/11 06:51:42;;;;;;;37.80;16.25;;;-5.10;65.30;;;;;;5035991;28;20486;-76
2021/01/11 06:54:13;;;;;;;38.10;16.70;;;-5.10;65.50;;;;;;5053922;28;20108;-77
2021/01/11 06:56:40;;;;;;;41.45;16.48;;;-5.00;65.50;;;;;;5035824;28;20456;-76
2021/01/11 06:59:12;;;;;;;32.80;14.40;;;-5.00;65.60;;;;;;5035710;28;20036;-77
2021/01/11 07:01:40;;;;;;;26.67;13.45;;;-5.00;65.50;;;;;;5035606;28;20528;-76
2021/01/11 07:04:10;;;;;;;24.70;12.15;;;-4.90;65.60;;;;;;5035759;28;20021;-77
2021/01/11 07:06:38;;;;;;;29.70;13.75;;;-5.00;65.50;;;;;;5035040;28;20075;-76
2021/01/11 07:09:17;;;;;;;32.22;13.63;;;-5.00;65.30;;;;;;5035932;28;20381;-77
2021/01/11 07:11:48;;;;;;;27.35;13.15;;;-4.90;65.20;;;;;;5035484;28;20135;-76
2021/01/11 07:14:16;;;;;;;43.63;17.92;;;-5.00;65.00;;;;;;5035538;28;20470;-76
2021/01/11 07:16:53;;;;;;;66.47;19.98;;;-5.00;65.10;;;;;;5035821;28;20061;-78
2021/01/11 07:19:39;;;;;;;32.80;16.65;;;-5.00;65.50;;;;;;5035520;28;20388;-78
2021/01/11 07:22:04;;;;;;;;;;;-5.00;65.70;;;;;;5022205;28;20068;-78
2021/01/11 07:24:32;;;;;;;29.33;11.82;;;-5.00;65.40;;;;;;5035648;28;19912;-78
2021/01/11 07:26:59;;;;;;;31.55;13.65;;;-5.00;64.90;;;;;;5035582;28;20472;-77
2021/01/11 07:29:25;;;;;;;32.03;15.00;;;-5.10;64.30;;;;;;5035210;28;20025;-77
2021/01/11 07:31:51;;;;;;;36.40;16.65;;;-5.20;63.90;;;;;;5035151;28;20094;-78
2021/01/11 07:34:19;;;;;;;38.78;16.25;;;-5.20;63.70;;;;;;5035338;28;20528;-80
2021/01/11 07:36:47;;;;;;;39.22;15.40;;;-5.30;63.60;;;;;;5035135;28;20366;-77
2021/01/11 07:39:12;;;;;;;28.80;14.02;;;-5.30;63.50;;;;;;5035197;28;20017;-77
2021/01/11 07:41:39;;;;;;;26.50;12.00;;;-5.30;63.50;;;;;;5053163;28;20378;-79
2021/01/11 07:44:25;;;;;;;26.73;12.73;;;-5.30;63.50;;;;;;5035253;28;20021;-77
2021/01/11 07:46:52;;;;;;;27.48;12.63;;;-5.30;63.40;;;;;;5035169;28;20025;-78
2021/01/11 07:49:18;;;;;;;27.35;12.20;;;-5.20;63.50;;;;;;5034712;28;20063;-78
2021/01/11 07:51:48;;;;;;;27.73;12.48;;;-5.20;63.50;;;;;;5034736;28;20083;-77
2021/01/11 07:54:22;;;;;;;31.35;14.93;;;-5.20;63.40;;;;;;5034955;28;20056;-77
2021/01/11 07:56:49;;;;;;;27.60;12.50;;;-5.20;63.40;;;;;;5035430;28;20029;-82
2021/01/11 07:59:16;;;;;;;38.75;15.85;;;-5.20;63.50;;;;;;5036064;28;20029;-77
2021/01/11 08:01:43;;;;;;;53.00;24.45;;;-5.20;63.60;;;;;;5037793;28;20136;-79
2021/01/11 08:04:10;;;;;;;48.28;22.05;;;-5.10;63.50;;;;;;5036375;28;20029;-82
2021/01/11 08:06:56;;;;;;;48.00;21.88;;;-5.10;63.40;;;;;;5036171;28;20025;-82
2021/01/11 08:09:25;;;;;;;40.40;17.80;;;-5.00;63.50;;;;;;5053106;28;20532;-80
2021/01/11 08:12:03;;;;;;;37.42;18.15;;;-4.90;63.50;;;;;;5034866;28;20052;-79
2021/01/11 08:14:29;;;;;;;35.35;16.13;;;-4.70;63.60;;;;;;5052552;28;20039;-76
2021/01/11 08:17:13;;;;;;;45.55;16.58;;;-4.30;72.80;;;;;;5035482;28;20533;-77
2021/01/11 08:19:52;;;;;;;41.05;18.15;;;-1.70;95.10;;;;;;5038945;28;20128;-76
2021/01/11 08:22:20;;;;;;;35.53;18.42;;;-0.70;98.20;;;;;;5056563;28;20063;-76
2021/01/11 08:24:59;;;;;;;38.97;17.42;;;0.30;82.40;;;;;;5022332;28;20040;-77
2021/01/11 08:27:43;;;;;;;37.53;17.98;;;1.40;70.70;;;;;;5038809;28;20377;-76
2021/01/11 08:30:11;;;;;;;40.08;20.13;;;1.60;65.40;;;;;;5038898;28;20071;-76
2021/01/11 08:32:39;;;;;;;40.83;22.42;;;1.90;59.00;;;;;;5038348;28;20073;-76
2021/01/11 08:35:23;;;;;;;36.53;18.90;;;1.40;54.80;;;;;;5022165;28;20025;-76
2021/01/11 08:37:50;;;;;;;36.67;19.77;;;0.70;53.20;;;;;;5021549;28;20120;-77
2021/01/11 08:40:26;;;;;;;41.47;21.00;;;0.50;55.60;;;;;;5044826;28;20035;-82
2021/01/11 08:42:53;;;;;;;39.80;20.33;;;-0.10;55.80;;;;;;5065675;28;20027;-81
2021/01/11 08:45:27;;;;;;;31.30;17.38;;;-0.70;54.10;;;;;;5036747;28;20051;-85
2021/01/11 08:48:07;;;;;;;29.48;16.15;;;-1.10;54.00;;;;;;5054907;28;20036;-77
2021/01/11 08:50:44;;;;;;;27.80;15.70;;;-1.40;54.20;;;;;;5058181;28;20031;-76
2021/01/11 08:53:22;;;;;;;31.33;15.90;;;-1.50;54.40;;;;;;5058581;28;20025;-82
2021/01/11 08:56:00;;;;;;;34.28;17.05;;;-1.60;54.50;;;;;;5058409;28;20473;-77
2021/01/11 08:58:28;;;;;;;41.42;18.55;;;-1.70;54.50;;;;;;5076349;28;20025;-78
2021/01/11 09:01:15;;;;;;;37.25;18.80;;;-1.70;54.70;;;;;;5058201;28;20442;-78
2021/01/11 09:03:41;;;;;;;40.90;21.58;;;-1.70;54.90;;;;;;5076001;28;20025;-80
2021/01/11 09:06:08;;;;;;;40.20;19.25;;;-1.70;55.20;;;;;;5075789;28;20032;-77
2021/01/11 09:08:34;;;;;;;39.38;18.23;;;-1.60;55.50;;;;;;5057779;28;20411;-78
2021/01/11 09:11:08;;;;;;;35.95;18.23;;;-1.50;55.90;;;;;;5057601;28;20062;-78
2021/01/11 09:13:34;;;;;;;35.35;16.80;;;-1.60;56.40;;;;;;5057436;28;20017;-77
2021/01/11 09:16:17;;;;;;;31.50;16.92;;;-1.40;56.80;;;;;;5056888;28;20497;-78
2021/01/11 09:18:42;;;;;;;27.45;14.15;;;-1.10;56.90;;;;;;5075635;28;20116;-77
2021/01/11 09:21:08;;;;;;;30.67;16.33;;;-0.90;56.70;;;;;;5057390;28;20066;-78
2021/01/11 09:23:34;;;;;;;29.17;15.52;;;-0.60;56.20;;;;;;5057587;28;20035;-78
2021/01/11 09:26:00;;;;;;;31.27;15.48;;;-0.40;55.60;;;;;;5057770;28;20552;-79
2021/01/11 09:28:27;;;;;;;25.05;13.25;;;-0.20;55.10;;;;;;5056778;28;20381;-77
2021/01/11 09:30:53;;;;;;;29.73;14.07;;;0.10;54.30;;;;;;5075468;28;20044;-77
2021/01/11 09:33:19;;;;;;;29.67;15.55;;;0.30;53.40;;;;;;5075415;28;20020;-81
2021/01/11 09:35:45;;;;;;;27.92;15.05;;;0.40;52.50;;;;;;5057411;28;20116;-77
2021/01/11 09:38:12;;;;;;;25.15;13.95;;;0.40;52.20;;;;;;5057348;28;20105;-79
2021/01/11 09:40:38;;;;;;;25.95;14.43;;;0.30;51.70;;;;;;5057039;28;20025;-77
2021/01/11 09:43:05;;;;;;;34.40;16.05;;;0.10;51.80;;;;;;5057201;28;20066;-78
2021/01/11 09:45:30;;;;;;;32.33;15.85;;;0.00;51.70;;;;;;5057392;28;20032;-75
2021/01/11 09:47:58;;;;;;;32.80;17.40;;;-0.20;51.90;;;;;;5074902;28;20029;-76
2021/01/11 09:50:24;;;;;;;34.95;17.23;;;0.10;51.90;;;;;;5057026;28;20108;-77
2021/01/11 09:52:50;;;;;;;33.83;16.50;;;0.00;51.70;;;;;;5057174;28;20107;-78
2021/01/11 09:55:16;;;;;;;38.78;18.58;;;0.00;51.90;;;;;;5057187;28;20020;-78
2021/01/11 09:57:42;;;;;;;36.58;18.10;;;-0.30;52.20;;;;;;5074776;28;20024;-77
2021/01/11 10:00:12;;;;;;;35.60;18.17;;;-0.20;52.80;;;;;;5057045;28;20055;-77
2021/01/11 10:02:39;;;;;;;30.95;16.95;;;0.30;52.70;;;;;;5056300;28;20049;-76
2021/01/11 10:05:05;;;;;;;33.63;17.45;;;0.70;52.70;;;;;;5057162;28;20024;-76
2021/01/11 10:07:31;;;;;;;31.10;16.52;;;1.30;51.10;;;;;;5057272;28;20020;-77
2021/01/11 10:09:56;;;;;;;27.52;15.40;;;1.70;49.80;;;;;;5061758;28;20029;-76
2021/01/11 10:12:22;;;;;;;26.80;14.18;;;1.80;48.70;;;;;;5081119;28;20043;-77
2021/01/11 10:14:48;;;;;;;25.08;14.05;;;2.10;48.20;;;;;;5079325;28;20028;-76
2021/01/11 10:17:14;;;;;;;30.63;14.27;;;2.50;47.30;;;;;;5040868;28;20033;-77
2021/01/11 10:19:39;;;;;;;25.23;13.93;;;2.50;46.50;;;;;;5074896;28;20082;-77
2021/01/11 10:22:05;;;;;;;28.33;15.38;;;2.50;46.10;;;;;;5056934;28;20024;-77
2021/01/11 10:24:31;;;;;;;27.63;14.18;;;2.50;45.50;;;;;;5056633;28;20027;-78
2021/01/11 10:26:57;;;;;;;27.08;14.10;;;2.40;45.20;;;;;;5056405;28;20055;-78
2021/01/11 10:29:24;;;;;;;23.52;13.38;;;2.70;45.20;;;;;;5056488;28;20021;-78
2021/01/11 10:31:51;;;;;;;29.27;15.63;;;2.80;44.70;;;;;;5056605;28;20035;-78
2021/01/11 10:34:19;;;;;;;37.10;16.83;;;2.80;44.20;;;;;;5056491;28;20560;-78
2021/01/11 10:36:48;;;;;;;34.08;16.20;;;2.90;43.90;;;;;;5056262;28;20492;-81
2021/01/11 10:39:15;;;;;;;26.52;14.65;;;3.10;43.60;;;;;;5056879;28;20104;-86
2021/01/11 10:41:41;;;;;;;32.40;17.15;;;3.20;42.80;;;;;;5038885;28;20032;-78
2021/01/11 10:44:08;;;;;;;33.95;17.00;;;3.40;43.10;;;;;;5056292;28;20421;-77
2021/01/11 10:46:34;;;;;;;28.70;15.25;;;3.60;42.50;;;;;;5055907;28;20029;-79
2021/01/11 10:49:00;;;;;;;28.42;15.82;;;4.00;42.00;;;;;;5055947;28;20071;-78
2021/01/11 10:51:26;;;;;;;26.30;15.90;;;4.20;41.10;;;;;;5039369;28;20064;-78
2021/01/11 10:53:53;;;;;;;28.02;15.63;;;4.30;40.40;;;;;;5073050;28;20047;-77
2021/01/11 10:56:19;;;;;;;27.40;15.20;;;4.40;40.00;;;;;;5039227;28;20039;-79
2021/01/11 10:58:45;;;;;;;26.25;14.93;;;4.80;39.60;;;;;;5039496;28;20389;-78
2021/01/11 11:01:14;;;;;;;25.55;14.57;;;5.20;39.00;;;;;;5073611;28;20055;-77
2021/01/11 11:03:40;;;;;;;22.65;13.88;;;5.50;38.40;;;;;;5055927;28;20020;-78
2021/01/11 11:06:07;;;;;;;28.85;15.75;;;5.90;37.80;;;;;;5055749;28;20031;-77
2021/01/11 11:08:33;;;;;;;28.48;15.27;;;5.60;37.10;;;;;;5055729;28;20025;-79
2021/01/11 11:10:58;;;;;;;30.33;15.63;;;5.10;37.20;;;;;;5073689;28;20136;-79
2021/01/11 11:13:24;;;;;;;30.30;17.60;;;5.40;37.10;;;;;;5055481;28;20473;-79
2021/01/11 11:15:51;;;;;;;32.30;18.17;;;5.00;36.80;;;;;;5055755;28;20028;-78
2021/01/11 11:18:17;;;;;;;30.50;16.83;;;4.40;37.40;;;;;;5055747;28;20029;-77
2021/01/11 11:20:47;;;;;;;29.42;16.60;;;4.30;38.10;;;;;;5055560;28;20487;-77
2021/01/11 11:23:13;;;;;;;31.75;17.23;;;4.50;38.40;;;;;;5055397;28;20024;-78
2021/01/11 11:25:45;;;;;;;26.05;15.20;;;4.80;38.20;;;;;;5055157;28;20074;-77
2021/01/11 11:28:14;;;;;;;25.50;15.82;;;5.20;37.90;;;;;;5055693;28;20481;-78
2021/01/11 11:30:43;;;;;;;27.58;15.95;;;5.60;37.30;;;;;;5055486;28;20077;-78
2021/01/11 11:33:09;;;;;;;26.95;15.70;;;5.90;36.80;;;;;;5056287;28;20032;-79
2021/01/11 11:35:34;;;;;;;27.67;16.38;;;6.40;36.20;;;;;;5056130;28;20065;-78
2021/01/11 11:38:00;;;;;;;27.73;15.52;;;6.80;35.50;;;;;;5057017;28;20032;-78
2021/01/11 11:40:30;;;;;;;29.20;15.60;;;7.50;34.70;;;;;;5043000;28;20404;-78
2021/01/11 11:42:57;;;;;;;25.35;14.80;;;8.30;33.70;;;;;;5056670;28;20028;-78
2021/01/11 11:45:24;;;;;;;27.95;16.58;;;9.20;32.50;;;;;;5062573;28;20499;-79
2021/01/11 11:47:52;;;;;;;26.05;16.65;;;10.00;31.20;;;;;;5057338;28;20515;-79
2021/01/11 11:50:18;;;;;;;26.60;15.57;;;10.50;29.80;;;;;;5057367;28;20107;-78
2021/01/11 11:52:44;;;;;;;30.90;19.02;;;11.00;28.50;;;;;;5075176;28;20452;-75
2021/01/11 11:55:11;;;;;;;27.98;16.15;;;11.60;27.30;;;;;;5039596;28;20021;-78
2021/01/11 11:57:44;;;;;;;30.58;17.23;;;12.20;26.10;;;;;;5055206;28;20028;-77
2021/01/11 12:00:13;;;;;;;25.67;16.55;;;12.80;24.70;;;;;;5072321;28;20132;-78
2021/01/11 12:02:42;;;;;;;26.48;16.15;;;13.30;23.60;;;;;;5038050;28;20505;-77
2021/01/11 12:05:10;;;;;;;29.20;17.88;;;13.30;22.70;;;;;;5038365;28;20036;-79
2021/01/11 12:07:36;;;;;;;29.75;17.02;;;12.70;22.10;;;;;;5054731;28;20036;-77
2021/01/11 12:10:04;;;;;;;25.98;17.23;;;11.60;22.40;;;;;;5052064;28;20048;-77
2021/01/11 12:12:30;;;;;;;31.40;18.38;;;10.90;23.10;;;;;;5055883;28;20094;-79
2021/01/11 12:14:55;;;;;;;27.80;16.77;;;10.20;23.80;;;;;;5054145;28;20025;-80
2021/01/11 12:17:25;;;;;;;23.55;15.65;;;9.70;24.80;;;;;;5038223;28;20444;-80
2021/01/11 12:19:51;;;;;;;25.77;15.88;;;9.80;25.90;;;;;;5054736;28;20413;-79
2021/01/11 12:22:17;;;;;;;27.35;16.75;;;10.40;26.30;;;;;;5054517;28;20036;-79
2021/01/11 12:24:42;;;;;;;29.73;17.55;;;10.90;26.10;;;;;;5054661;28;20047;-81
2021/01/11 12:27:08;;;;;;;30.13;17.10;;;10.60;26.40;;;;;;5054891;28;20031;-77
2021/01/11 12:29:35;;;;;;;22.48;15.35;;;11.70;26.00;;;;;;5054553;28;20020;-80
2021/01/11 12:32:05;;;;;;;19.55;14.30;;;13.30;25.10;;;;;;5054535;28;20094;-81
2021/01/11 12:34:39;;;;;;;20.70;14.13;;;15.10;23.10;;;;;;5054044;28;20034;-80
2021/01/11 12:37:12;;;;;;;19.88;15.35;;;16.80;20.60;;;;;;5054478;28;20037;-77
2021/01/11 12:39:38;;;;;;;21.00;15.05;;;16.90;18.70;;;;;;5054450;28;20111;-78
2021/01/11 12:42:05;;;;;;;21.73;15.70;;;18.10;17.60;;;;;;5072361;28;20099;-78